Catheys Valley, California
Current Conditions -  °F | °C
As of 11:30 AM on Monday 22 Dec 2014 (Local Time) from KMCE Reporting Station
Haze Haze  
Wind Chill: 58°   Ceiling: 1300
Heat Index: 58°   Visibility: 3mi
Dew Point: 55°   Wind: 7mph
Humidity: 90%   Direction: 340°NNW
Pressure: 30.25"   Gusts: NA
Location:  37.41°N, 120.1°W
Report Text: KMCE 221930Z AUTO 34006KT 3SM BR SCT006 OVC013 14/13 A3025 RMK AO2 T01440128
Loading
Personal Weather Stations






























Interactive Weather Map New forecast layout! Learn more

10-Day Weather Forecast

Advertisements
Track Severe Weather on mobile